Time;durP1;ratioP1;P1;durP2;ratioP2;P2;SDS_P1;SDS_P2;PMS_P1;PMS_P2;Temp;Humidity;BMP_temperature;BMP_pressure;BME280_temperature;BME280_humidity;BME280_pressure;Samples;Min_cycle;Max_cycle;Signal;HPM_P1;HPM_P2
2022/07/18 00:01:01;;;;;;;1.20;1.10;;;;;;;18.35;38.59;99671.03;5073953;28;38940;-81
2022/07/18 00:03:30;;;;;;;1.97;1.20;;;;;;;18.30;38.63;99660.69;5091640;28;41647;-79
2022/07/18 00:05:57;;;;;;;2.03;1.00;;;;;;;18.28;38.56;99668.03;5073938;28;41994;-83
2022/07/18 00:08:25;;;;;;;1.30;1.10;;;;;;;18.15;38.86;99651.22;5108942;27;42319;-78
2022/07/18 00:10:53;;;;;;;1.87;1.20;;;;;;;18.17;39.51;99665.38;5091286;28;40536;-78
2022/07/18 00:13:21;;;;;;;1.33;1.03;;;;;;;18.12;40.30;99661.34;5074495;28;41734;-82
2022/07/18 00:15:49;;;;;;;1.60;1.00;;;;;;;18.00;39.72;99651.59;5092217;28;43591;-79
2022/07/18 00:18:17;;;;;;;1.60;0.80;;;;;;;17.94;40.00;99651.09;5108355;28;42849;-77
2022/07/18 00:20:46;;;;;;;2.00;1.27;;;;;;;17.98;39.66;99666.94;5074337;28;40416;-80
2022/07/18 00:23:14;;;;;;;0.93;0.80;;;;;;;17.93;39.67;99670.00;5091545;28;42020;-76
2022/07/18 00:25:41;;;;;;;0.73;0.73;;;;;;;17.88;39.93;99677.56;5092515;28;43752;-78
2022/07/18 00:28:11;;;;;;;1.17;0.80;;;;;;;17.83;40.18;99671.69;5091006;28;41331;-77
2022/07/18 00:30:39;;;;;;;0.90;0.90;;;;;;;17.77;40.51;99670.38;5125722;27;42011;-75
2022/07/18 00:33:07;;;;;;;3.47;1.00;;;;;;;17.71;40.47;99670.00;5107935;28;40791;-75
2022/07/18 00:35:36;;;;;;;2.27;1.40;;;;;;;17.66;40.60;99680.22;5106940;28;42823;-77
2022/07/18 00:38:05;;;;;;;1.10;0.70;;;;;;;17.57;41.61;99666.53;5090784;28;42117;-81
2022/07/18 00:40:33;;;;;;;1.00;0.77;;;;;;;17.52;41.90;99668.75;5092154;28;39798;-79
2022/07/18 00:43:01;;;;;;;1.07;0.80;;;;;;;17.47;41.40;99673.59;5090894;28;40753;-79
2022/07/18 00:45:28;;;;;;;1.00;0.63;;;;;;;17.45;41.34;99678.22;5074413;28;42854;-78
2022/07/18 00:47:56;;;;;;;2.23;1.00;;;;;;;17.36;41.19;99670.03;5073994;28;41486;-76
2022/07/18 00:50:25;;;;;;;1.73;1.00;;;;;;;17.39;41.08;99683.19;5091118;28;40890;-82
2022/07/18 00:52:53;;;;;;;0.77;0.60;;;;;;;17.36;41.12;99681.59;5091922;28;41893;-77
2022/07/18 00:55:22;;;;;;;1.00;0.60;;;;;;;17.33;40.93;99684.50;5125177;27;42550;-81
2022/07/18 00:57:50;;;;;;;1.10;0.97;;;;;;;17.31;40.44;99686.44;5090647;28;41088;-81
2022/07/18 01:03:03;;;;;;;0.93;0.80;;;;;;;17.28;40.39;99685.84;5073412;28;41751;-78
2022/07/18 01:05:31;;;;;;;0.93;0.87;;;;;;;17.26;40.24;99683.28;5090758;28;43172;-78
2022/07/18 01:07:58;;;;;;;0.97;0.70;;;;;;;17.24;40.56;99675.38;5107514;28;41331;-75
2022/07/18 01:10:28;;;;;;;1.57;1.00;;;;;;;17.25;40.65;99686.94;5091108;28;39915;-79
2022/07/18 01:12:56;;;;;;;1.77;1.00;;;;;;;17.24;40.51;99685.22;5090647;28;42247;-83
2022/07/18 01:15:24;;;;;;;2.97;1.27;;;;;;;17.14;40.76;99661.00;5092120;28;42920;-73
2022/07/18 01:17:51;;;;;;;1.43;1.00;;;;;;;17.20;41.16;99673.03;5091300;28;42531;-77
2022/07/18 01:20:19;;;;;;;1.50;0.80;;;;;;;17.17;41.64;99666.13;5092023;28;41042;-82
2022/07/18 01:22:49;;;;;;;0.90;0.80;;;;;;;17.18;41.51;99675.00;5091529;28;41482;-76
2022/07/18 01:25:17;;;;;;;1.00;0.90;;;;;;;17.17;41.61;99670.63;5090513;28;41725;-77
2022/07/18 01:27:44;;;;;;;1.43;1.10;;;;;;;17.14;41.52;99669.03;5124629;27;42224;-82
2022/07/18 01:30:12;;;;;;;1.13;0.73;;;;;;;17.11;41.64;99671.06;5092043;28;40949;-80
2022/07/18 01:32:40;;;;;;;1.53;1.10;;;;;;;17.05;41.83;99664.38;5090281;28;41863;-80
2022/07/18 01:35:08;;;;;;;1.93;0.97;;;;;;;17.04;41.71;99662.69;5073643;28;43223;-76
2022/07/18 01:37:36;;;;;;;1.53;1.03;;;;;;;17.02;41.84;99663.75;5091014;28;43704;-81
2022/07/18 01:40:10;;;;;;;0.70;0.70;;;;;;;16.99;41.93;99663.97;5126651;27;39991;-81
2022/07/18 01:42:37;;;;;;;2.77;1.13;;;;;;;16.97;42.33;99671.28;5073002;28;40715;-75
2022/07/18 01:45:05;;;;;;;1.07;0.97;;;;;;;16.93;42.24;99675.16;5090779;28;41536;-79
2022/07/18 01:47:33;;;;;;;1.50;0.97;;;;;;;16.92;42.19;99673.47;5092761;28;41212;-82
2022/07/18 01:50:01;;;;;;;1.37;1.00;;;;;;;16.87;42.42;99673.78;5111276;28;41097;-80
2022/07/18 01:52:28;;;;;;;1.10;1.00;;;;;;;16.86;42.70;99669.41;5093776;28;41378;-82
2022/07/18 01:54:56;;;;;;;1.73;1.20;;;;;;;16.83;42.67;99680.34;5111106;28;41732;-74
2022/07/18 01:57:25;;;;;;;3.00;0.97;;;;;;;16.77;42.51;99665.63;5110807;28;42276;-82
2022/07/18 01:59:54;;;;;;;1.60;1.00;;;;;;;16.76;43.15;99679.94;5093623;28;38871;-79
2022/07/18 02:02:21;;;;;;;0.87;0.77;;;;;;;16.70;42.92;99676.88;5093768;28;41630;-74
2022/07/18 02:05:01;;;;;;;1.30;1.20;;;;;;;16.67;42.84;99680.66;5076883;28;42811;-79
2022/07/18 02:07:30;;;;;;;1.03;0.90;;;;;;;16.64;43.23;99680.88;5092494;28;42396;-82
2022/07/18 02:09:58;;;;;;;2.00;0.97;;;;;;;16.57;43.24;99682.25;5076818;28;40109;-81
2022/07/18 02:12:28;;;;;;;1.13;0.90;;;;;;;16.42;43.29;99660.19;5076415;28;43622;-78
2022/07/18 02:14:55;;;;;;;1.03;0.80;;;;;;;16.44;42.88;99676.13;5094798;28;43689;-82
2022/07/18 02:17:23;;;;;;;1.23;1.00;;;;;;;16.45;43.25;99685.81;5094404;28;43214;-80
2022/07/18 02:19:51;;;;;;;1.20;0.90;;;;;;;16.41;43.55;99689.69;5110483;28;39356;-77
2022/07/18 02:22:18;;;;;;;1.43;1.00;;;;;;;16.36;43.55;99686.50;5092862;28;41957;-74
2022/07/18 02:24:46;;;;;;;1.20;0.90;;;;;;;16.32;43.61;99685.03;5127636;27;42467;-77
2022/07/18 02:27:14;;;;;;;1.40;0.97;;;;;;;16.26;43.96;99680.13;5094266;28;43162;-77
2022/07/18 02:29:44;;;;;;;3.13;1.00;;;;;;;16.22;44.17;99681.28;5093460;28;39847;-82
2022/07/18 02:32:12;;;;;;;2.03;1.07;;;;;;;16.14;44.54;99676.53;5126968;27;41753;-84
2022/07/18 02:34:39;;;;;;;2.53;0.80;;;;;;;16.16;44.12;99675.44;5093384;28;42649;-79
2022/07/18 02:37:08;;;;;;;0.90;0.80;;;;;;;16.13;44.20;99675.66;5075747;28;41443;-85
2022/07/18 02:39:35;;;;;;;0.80;0.80;;;;;;;16.12;44.72;99679.31;5094246;28;39963;-75
2022/07/18 02:42:04;;;;;;;2.13;1.03;;;;;;;16.10;44.89;99675.88;5092616;28;41557;-83
2022/07/18 02:44:32;;;;;;;2.40;1.60;;;;;;;16.06;44.54;99674.41;5093173;28;41621;-82
2022/07/18 02:47:01;;;;;;;2.27;0.83;;;;;;;16.05;45.71;99666.50;5093764;28;42402;-75
2022/07/18 02:49:28;;;;;;;1.20;1.00;;;;;;;16.05;45.42;99671.84;5093273;28;39069;-75
2022/07/18 02:51:58;;;;;;;2.57;1.03;;;;;;;16.03;45.40;99669.28;5092910;28;40777;-81
2022/07/18 02:54:26;;;;;;;1.53;1.13;;;;;;;16.01;45.46;99660.50;5092912;28;44445;-75
2022/07/18 02:56:54;;;;;;;1.20;1.00;;;;;;;16.00;45.16;99663.28;5092570;28;42550;-84
2022/07/18 02:59:22;;;;;;;1.17;1.00;;;;;;;15.58;44.88;99597.81;5074838;28;41359;-78
2022/07/18 03:01:50;;;;;;;2.70;1.10;;;;;;;15.95;45.05;99665.47;5092165;28;41948;-77
2022/07/18 03:04:20;;;;;;;1.80;1.10;;;;;;;15.89;45.15;99664.06;5094323;28;42815;-82
2022/07/18 03:06:49;;;;;;;1.03;0.90;;;;;;;15.85;45.12;99659.91;5093840;28;41709;-83
2022/07/18 03:09:18;;;;;;;1.03;0.80;;;;;;;15.81;45.29;99663.78;5094007;28;40930;-79
2022/07/18 03:11:46;;;;;;;1.00;0.90;;;;;;;15.77;45.41;99656.94;5092376;28;41820;-76
2022/07/18 03:14:14;;;;;;;2.30;1.00;;;;;;;15.72;45.68;99659.06;5092478;28;42394;-79
2022/07/18 03:16:42;;;;;;;1.00;0.80;;;;;;;15.67;46.01;99663.88;5093786;28;42251;-84
2022/07/18 03:19:10;;;;;;;1.30;1.20;;;;;;;15.61;45.81;99656.28;5093827;28;40977;-75
2022/07/18 03:21:39;;;;;;;1.20;0.90;;;;;;;15.55;45.89;99656.75;5096897;28;41899;-80
2022/07/18 03:24:07;;;;;;;2.03;0.80;;;;;;;15.51;45.98;99648.06;5098343;28;44512;-75
2022/07/18 03:26:35;;;;;;;1.07;1.00;;;;;;;15.48;45.92;99650.06;5098080;28;42308;-74
2022/07/18 03:29:02;;;;;;;1.10;0.90;;;;;;;15.45;45.78;99652.00;5115651;28;38702;-81
2022/07/18 03:31:30;;;;;;;1.23;0.90;;;;;;;15.44;46.02;99646.78;5080915;28;40378;-78
2022/07/18 03:33:58;;;;;;;0.93;0.80;;;;;;;15.42;45.86;99646.88;5132678;27;43968;-79
2022/07/18 03:36:26;;;;;;;1.30;0.90;;;;;;;15.40;45.93;99648.81;5098893;28;41429;-81
2022/07/18 03:38:55;;;;;;;1.83;1.07;;;;;;;15.40;45.75;99658.63;5093958;28;41239;-75
2022/07/18 03:41:23;;;;;;;0.97;0.87;;;;;;;15.37;46.07;99659.69;5125760;27;41517;-81
2022/07/18 03:43:51;;;;;;;1.53;0.90;;;;;;;15.37;46.03;99657.03;5093172;28;43808;-78
2022/07/18 03:46:19;;;;;;;1.43;0.97;;;;;;;15.32;46.35;99653.84;5108584;28;42496;-82
2022/07/18 03:48:46;;;;;;;0.90;0.90;;;;;;;15.35;46.32;99661.59;5092183;28;39825;-79
2022/07/18 03:51:14;;;;;;;0.77;0.77;;;;;;;15.35;46.03;99661.59;5092287;28;41173;-74
2022/07/18 03:53:42;;;;;;;1.10;0.80;;;;;;;15.33;45.97;99666.19;5093171;28;43082;-78
2022/07/18 03:56:11;;;;;;;0.73;0.70;;;;;;;15.33;46.63;99663.53;5093514;28;42303;-79
2022/07/18 03:58:39;;;;;;;1.10;0.90;;;;;;;15.30;46.76;99662.91;5075052;28;39862;-86
2022/07/18 04:01:07;;;;;;;2.07;0.97;;;;;;;15.27;46.78;99665.78;5074249;28;43677;-75
2022/07/18 04:03:35;;;;;;;0.90;0.90;;;;;;;15.25;46.95;99660.53;5091588;28;44486;-82
2022/07/18 04:06:03;;;;;;;0.90;0.90;;;;;;;15.25;47.15;99660.53;5108502;28;41206;-83
2022/07/18 04:08:31;;;;;;;0.77;0.70;;;;;;;15.26;47.69;99664.91;5093033;28;40919;-75
2022/07/18 04:10:58;;;;;;;1.00;0.83;;;;;;;15.26;48.04;99670.25;5092271;28;42709;-78
2022/07/18 04:13:27;;;;;;;0.90;0.80;;;;;;;15.28;48.29;99675.50;5091492;28;42569;-80
2022/07/18 04:15:55;;;;;;;1.87;0.83;;;;;;;15.30;47.83;99674.44;5092582;28;42483;-82
2022/07/18 04:18:23;;;;;;;0.93;0.77;;;;;;;15.35;47.57;99671.44;5091619;28;40970;-79
2022/07/18 04:20:51;;;;;;;1.03;0.93;;;;;;;15.38;47.67;99672.06;5108342;28;43790;-77
2022/07/18 04:23:19;;;;;;;0.73;0.70;;;;;;;15.45;47.20;99683.19;5108004;28;43847;-73
2022/07/18 04:25:47;;;;;;;1.20;0.80;;;;;;;15.49;46.98;99675.81;5073545;28;42094;-74
2022/07/18 04:28:15;;;;;;;0.73;0.60;;;;;;;15.49;46.66;99662.47;5073733;28;38948;-74
2022/07/18 04:30:45;;;;;;;1.30;0.80;;;;;;;15.68;46.76;99686.97;5090773;28;41728;-74
2022/07/18 04:33:13;;;;;;;1.03;0.93;;;;;;;15.73;46.75;99693.69;5090382;28;45000;-73
2022/07/18 04:35:41;;;;;;;0.80;0.63;;;;;;;15.82;46.50;99686.84;5090347;28;43181;-73
2022/07/18 04:38:11;;;;;;;1.20;1.10;;;;;;;15.88;46.62;99691.75;5091635;28;41708;-73
2022/07/18 04:40:39;;;;;;;1.40;1.00;;;;;;;15.97;46.40;99692.91;5091840;28;41815;-74
2022/07/18 04:43:08;;;;;;;1.67;1.00;;;;;;;16.05;46.21;99694.06;5073329;28;41353;-74
2022/07/18 04:45:36;;;;;;;0.97;0.70;;;;;;;16.15;46.18;99694.28;5091699;28;42233;-74
2022/07/18 04:48:07;;;;;;;2.03;0.70;;;;;;;16.24;46.26;99682.91;5105941;28;38773;-73
2022/07/18 04:50:35;;;;;;;2.47;1.17;;;;;;;16.36;46.53;99684.69;5073612;28;40854;-74
2022/07/18 04:53:03;;;;;;;1.90;1.17;;;;;;;16.49;46.49;99687.31;5073048;28;44786;-73
2022/07/18 04:55:30;;;;;;;1.10;1.00;;;;;;;16.61;46.33;99686.41;5073199;28;42798;-73
2022/07/18 04:57:58;;;;;;;1.07;0.90;;;;;;;16.74;46.58;99687.22;5091143;28;39922;-73
2022/07/18 05:00:27;;;;;;;0.83;0.83;;;;;;;16.86;46.24;99680.97;5090848;28;42731;-74
2022/07/18 05:02:57;;;;;;;1.70;0.93;;;;;;;17.00;46.54;99679.94;5091228;28;43008;-73
2022/07/18 05:05:28;;;;;;;1.47;1.03;;;;;;;17.12;46.42;99680.81;5089735;28;43778;-75
2022/07/18 05:07:56;;;;;;;1.23;1.00;;;;;;;17.24;46.11;99682.56;5091110;28;40059;-74
2022/07/18 05:10:25;;;;;;;1.33;1.07;;;;;;;17.37;46.17;99686.00;5091358;28;41786;-72
2022/07/18 05:12:55;;;;;;;2.67;1.10;;;;;;;17.50;45.86;99685.91;5072901;28;41997;-74
2022/07/18 05:15:25;;;;;;;2.30;1.40;;;;;;;17.65;45.89;99689.25;5091448;28;42736;-75
2022/07/18 05:17:53;;;;;;;0.80;0.80;;;;;;;17.77;45.41;99685.59;5106717;28;38754;-73
2022/07/18 05:20:23;;;;;;;1.70;1.60;;;;;;;17.88;45.46;99686.44;5089982;28;41669;-73
2022/07/18 05:22:54;;;;;;;1.10;1.00;;;;;;;18.01;45.39;99683.66;5094030;28;42739;-74
2022/07/18 05:25:23;;;;;;;1.47;1.37;;;;;;;18.13;44.96;99679.97;5091524;28;42489;-74
2022/07/18 05:27:51;;;;;;;1.80;1.20;;;;;;;18.25;45.02;99673.63;5110190;28;40185;-73
2022/07/18 05:30:19;;;;;;;2.27;1.37;;;;;;;18.39;44.79;99690.44;5094664;28;41693;-74
2022/07/18 05:32:49;;;;;;;2.57;1.67;;;;;;;18.48;44.73;99685.16;5093234;28;43737;-74
2022/07/18 05:35:17;;;;;;;1.50;1.23;;;;;;;18.64;44.74;99684.78;5076284;28;43846;-76
2022/07/18 05:37:44;;;;;;;1.47;1.33;;;;;;;18.74;44.50;99677.69;5093109;28;39795;-74
2022/07/18 05:40:15;;;;;;;2.50;1.20;;;;;;;18.89;44.05;99684.47;5093350;28;41498;-75
2022/07/18 05:42:43;;;;;;;2.33;1.60;;;;;;;19.04;44.40;99676.09;5094416;28;42550;-73
2022/07/18 05:45:12;;;;;;;1.80;1.40;;;;;;;19.15;44.15;99670.69;5093212;28;42115;-74
2022/07/18 05:47:40;;;;;;;1.70;1.30;;;;;;;19.29;43.73;99686.44;5092868;28;38876;-74
2022/07/18 05:50:09;;;;;;;1.93;1.13;;;;;;;19.41;43.53;99680.00;5127028;27;41543;-73
2022/07/18 05:52:37;;;;;;;2.20;1.43;;;;;;;19.53;43.58;99678.16;5092070;28;41622;-73
2022/07/18 05:55:07;;;;;;;2.17;1.40;;;;;;;19.64;43.38;99687.00;5092904;28;42357;-74
2022/07/18 05:57:37;;;;;;;1.90;1.13;;;;;;;19.74;42.92;99681.66;5092572;28;38916;-73
2022/07/18 06:00:06;;;;;;;1.67;1.17;;;;;;;19.88;42.78;99685.84;5093996;28;41727;-74
2022/07/18 06:02:36;;;;;;;2.67;1.30;;;;;;;20.03;41.45;99687.16;5092469;28;41951;-74
2022/07/18 06:05:05;;;;;;;3.70;1.30;;;;;;;20.20;41.42;99694.59;5093710;28;42201;-74
2022/07/18 06:07:33;;;;;;;2.20;1.00;;;;;;;20.35;40.39;99693.28;5093816;28;40938;-75
2022/07/18 06:10:01;;;;;;;2.60;1.17;;;;;;;20.52;40.22;99704.38;5109650;28;40904;-74
2022/07/18 06:12:31;;;;;;;2.03;1.20;;;;;;;20.67;39.85;99705.66;5092437;28;42663;-75
2022/07/18 06:15:00;;;;;;;1.53;1.17;;;;;;;20.87;39.37;99714.63;5093530;28;42242;-74
2022/07/18 06:17:28;;;;;;;1.53;0.97;;;;;;;21.04;38.95;99717.44;5092452;28;41504;-74
2022/07/18 06:19:56;;;;;;;1.50;1.20;;;;;;;21.20;38.22;99721.47;5093938;28;42451;-74
2022/07/18 06:22:24;;;;;;;6.37;1.60;;;;;;;21.33;37.97;99722.03;5093507;28;42602;-74
2022/07/18 06:24:52;;;;;;;1.20;0.90;;;;;;;21.49;37.70;99722.28;5092421;28;42017;-75
2022/07/18 06:27:20;;;;;;;1.20;1.00;;;;;;;21.66;38.12;99721.53;5092280;28;38678;-74
2022/07/18 06:29:48;;;;;;;1.03;1.00;;;;;;;21.82;37.78;99724.50;5092349;28;42982;-74
2022/07/18 06:32:17;;;;;;;1.63;1.10;;;;;;;21.97;37.05;99718.63;5092241;28;42512;-74
2022/07/18 06:34:45;;;;;;;1.00;1.00;;;;;;;22.13;36.67;99727.00;5092318;28;41183;-74
2022/07/18 06:37:13;;;;;;;1.53;1.07;;;;;;;22.23;36.16;99726.94;5092415;28;40082;-74
2022/07/18 06:39:41;;;;;;;2.17;1.00;;;;;;;22.34;35.81;99724.91;5093167;28;41859;-75
2022/07/18 06:42:08;;;;;;;1.13;1.03;;;;;;;22.66;35.08;99728.97;5089105;28;43435;-76
2022/07/18 06:44:36;;;;;;;1.17;0.93;;;;;;;22.86;34.93;99722.50;5072348;28;41172;-74
2022/07/18 06:47:04;;;;;;;1.93;0.87;;;;;;;23.05;34.85;99726.88;5091434;28;40918;-76
2022/07/18 06:49:33;;;;;;;2.00;0.90;;;;;;;23.18;34.18;99730.06;5091216;28;42467;-75
2022/07/18 06:52:01;;;;;;;1.40;0.93;;;;;;;23.20;33.77;99728.91;5073585;28;41777;-78
2022/07/18 06:54:29;;;;;;;1.57;0.90;;;;;;;23.36;32.90;99743.56;5073474;28;43174;-76
2022/07/18 06:56:58;;;;;;;1.20;1.10;;;;;;;23.52;33.73;99746.44;5093092;28;40901;-75
2022/07/18 06:59:26;;;;;;;1.40;1.00;;;;;;;23.78;32.90;99744.59;5092056;28;41806;-75
2022/07/18 07:01:54;;;;;;;1.57;0.97;;;;;;;24.11;32.45;99745.66;5092112;28;43820;-75
2022/07/18 07:04:22;;;;;;;1.70;1.07;;;;;;;24.42;31.74;99759.56;5092803;28;42321;-77
2022/07/18 07:06:51;;;;;;;1.87;0.73;;;;;;;24.65;31.72;99749.81;5091899;28;40890;-76
2022/07/18 07:09:19;;;;;;;1.00;0.80;;;;;;;24.91;31.60;99754.31;5054271;28;42105;-77
2022/07/18 07:11:47;;;;;;;1.30;1.20;;;;;;;25.21;31.09;99761.03;5071337;28;41931;-74
2022/07/18 07:14:15;;;;;;;2.33;0.90;;;;;;;25.45;31.53;99763.75;5090465;28;41183;-74
2022/07/18 07:16:42;;;;;;;1.40;1.10;;;;;;;25.63;30.76;99777.16;5091409;28;38886;-73
2022/07/18 07:19:10;;;;;;;1.47;1.10;;;;;;;25.74;30.14;99779.53;5092128;28;41589;-72
2022/07/18 07:21:38;;;;;;;1.60;1.00;;;;;;;25.86;30.96;99774.59;5092411;28;43772;-73
2022/07/18 07:24:08;;;;;;;2.90;1.40;;;;;;;25.95;30.07;99774.44;5090942;28;42510;-73
2022/07/18 07:26:36;;;;;;;1.93;1.00;;;;;;;26.05;29.56;99777.81;5125910;27;39520;-73
2022/07/18 07:29:04;;;;;;;2.00;1.00;;;;;;;26.25;29.34;99777.44;5090550;28;41527;-73
2022/07/18 07:31:32;;;;;;;2.23;1.13;;;;;;;26.69;28.49;99772.41;5091241;28;42554;-72
2022/07/18 07:34:00;;;;;;;0.83;0.83;;;;;;;27.29;27.99;99772.59;5091884;28;43274;-75
2022/07/18 07:36:28;;;;;;;1.47;0.90;;;;;;;28.29;27.40;99772.41;5091093;28;39920;-73
2022/07/18 07:38:56;;;;;;;2.33;0.80;;;;;;;29.48;25.84;99786.53;5092019;28;42453;-71
2022/07/18 07:41:25;;;;;;;1.10;1.00;;;;;;;30.33;24.36;99794.63;5092129;28;43792;-73
2022/07/18 07:43:53;;;;;;;1.80;1.00;;;;;;;31.00;23.70;99801.31;5091207;28;43102;-72
2022/07/18 07:46:20;;;;;;;2.40;1.10;;;;;;;31.75;22.93;99801.13;5091117;28;40877;-77
2022/07/18 07:48:48;;;;;;;1.00;0.97;;;;;;;32.50;21.83;99801.72;5092311;28;42052;-77
2022/07/18 07:51:16;;;;;;;1.70;1.00;;;;;;;33.43;20.24;99810.47;5073936;28;43090;-73
2022/07/18 07:53:44;;;;;;;1.77;0.97;;;;;;;34.01;19.44;99824.84;5073211;28;42086;-73
2022/07/18 07:56:11;;;;;;;1.13;1.03;;;;;;;34.16;19.47;99822.63;5091639;28;40790;-74
2022/07/18 07:58:41;;;;;;;1.63;1.27;;;;;;;33.98;19.33;99816.25;5124001;27;42423;-73
2022/07/18 08:01:08;;;;;;;0.80;0.80;;;;;;;33.69;19.73;99815.78;5091429;28;42765;-74
2022/07/18 08:03:36;;;;;;;1.00;1.00;;;;;;;33.54;20.32;99812.50;5090379;28;42601;-75
2022/07/18 08:06:04;;;;;;;0.97;0.97;;;;;;;34.03;20.17;99805.41;5091948;28;39996;-73
2022/07/18 08:08:31;;;;;;;0.83;0.73;;;;;;;35.27;18.39;99803.22;5090420;28;41847;-74
2022/07/18 08:10:59;;;;;;;1.10;1.00;;;;;;;36.72;17.44;99810.22;5090617;28;43523;-78
2022/07/18 08:13:27;;;;;;;1.17;1.07;;;;;;;38.16;16.74;99816.34;5091604;28;42344;-76
2022/07/18 08:15:56;;;;;;;1.40;1.30;;;;;;;38.95;15.85;99825.28;5090681;28;38808;-75
2022/07/18 08:18:23;;;;;;;1.17;1.10;;;;;;;38.84;16.14;99815.97;5089894;28;42932;-75
2022/07/18 08:20:51;;;;;;;2.47;1.27;;;;;;;38.38;16.41;99812.53;5091809;28;42862;-78
2022/07/18 08:23:19;;;;;;;2.13;1.10;;;;;;;38.33;15.86;99823.53;5090360;28;42117;-76
2022/07/18 08:25:47;;;;;;;2.58;1.25;;;;;;;39.46;15.08;99819.25;5091502;28;40869;-76
2022/07/18 08:28:15;;;;;;;1.42;0.98;;;;;;;40.77;14.44;99827.03;5091461;28;42715;-77
2022/07/18 08:30:42;;;;;;;1.77;0.93;;;;;;;41.90;13.62;99823.53;5090505;28;42763;-77
2022/07/18 08:33:12;;;;;;;2.33;1.10;;;;;;;42.58;13.19;99826.84;5091011;28;42254;-77
2022/07/18 08:35:40;;;;;;;1.58;1.10;;;;;;;42.84;12.62;99817.31;5073256;28;39964;-77
2022/07/18 08:38:07;;;;;;;1.95;1.10;;;;;;;42.82;12.80;99825.13;5090408;28;41695;-78
2022/07/18 08:40:36;;;;;;;1.48;1.30;;;;;;;42.38;13.06;99826.88;5106571;28;43714;-77
2022/07/18 08:43:04;;;;;;;3.33;1.20;;;;;;;42.11;13.63;99813.25;5088217;28;43578;-77
2022/07/18 08:45:31;;;;;;;1.98;1.00;;;;;;;42.61;13.10;99818.75;5091271;28;41697;-78
2022/07/18 08:47:59;;;;;;;1.02;0.88;;;;;;;43.17;12.67;99804.59;5072099;28;40709;-77
2022/07/18 08:50:28;;;;;;;1.52;1.38;;;;;;;43.92;12.14;99815.59;5091095;28;42806;-77
2022/07/18 08:52:56;;;;;;;1.05;1.00;;;;;;;44.33;12.00;99816.06;5068744;28;40948;-75
2022/07/18 08:55:24;;;;;;;1.10;1.00;;;;;;;44.23;11.99;99811.44;5069394;28;38777;-76
2022/07/18 08:57:53;;;;;;;1.38;1.00;;;;;;;43.98;12.15;99820.03;5079973;28;42420;-77
2022/07/18 09:00:21;;;;;;;1.08;0.95;;;;;;;43.52;12.86;99811.13;5093033;28;42213;-76
2022/07/18 09:02:58;;;;;;;1.60;1.10;;;;;;;43.06;12.52;99813.31;5092919;28;42616;-77
2022/07/18 09:05:25;;;;;;;1.92;1.17;;;;;;;43.04;12.68;99801.59;5124737;27;40313;-77
2022/07/18 09:08:09;;;;;;;1.73;1.10;;;;;;;42.31;12.67;99794.53;5093938;28;42841;-76
2022/07/18 09:10:42;;;;;;;2.33;1.02;;;;;;;41.11;13.06;99796.88;5090318;28;42957;-79
2022/07/18 09:13:10;;;;;;;1.30;1.20;;;;;;;40.22;13.79;99781.09;5092832;28;46367;-80
2022/07/18 09:15:58;;;;;;;1.27;1.00;;;;;;;39.88;14.65;99776.13;5076888;28;38838;-81
2022/07/18 09:18:29;;;;;;;1.45;1.10;;;;;;;39.93;14.55;99776.19;5091133;28;42249;-75
2022/07/18 09:21:02;;;;;;;2.70;1.20;;;;;;;39.74;14.34;99775.72;5093219;28;43810;-73
2022/07/18 09:23:32;;;;;;;1.33;1.15;;;;;;;39.31;14.28;99768.34;5092576;28;42177;-75
2022/07/18 09:26:00;;;;;;;1.38;0.93;;;;;;;39.31;14.07;99776.66;5094331;28;40499;-73
2022/07/18 09:28:28;;;;;;;1.15;1.00;;;;;;;39.70;13.64;99782.88;5094119;28;42656;-80
2022/07/18 09:30:57;;;;;;;0.90;0.90;;;;;;;39.46;14.05;99777.66;5092916;28;43441;-74
2022/07/18 09:33:25;;;;;;;2.55;1.02;;;;;;;39.24;14.10;99768.53;5093496;28;43354;-75
2022/07/18 09:35:54;;;;;;;1.53;1.00;;;;;;;39.00;14.26;99772.72;5092212;28;42267;-75
2022/07/18 09:38:25;;;;;;;2.47;1.30;;;;;;;38.84;14.31;99757.78;5092496;28;41884;-76
2022/07/18 09:40:57;;;;;;;1.17;0.90;;;;;;;38.99;14.09;99769.09;5075404;28;42742;-79
2022/07/18 09:43:26;;;;;;;1.23;0.90;;;;;;;39.00;13.75;99769.94;5092375;28;41415;-76
2022/07/18 09:45:56;;;;;;;2.00;1.17;;;;;;;38.88;13.97;99758.13;5075444;28;38701;-78
2022/07/18 09:48:25;;;;;;;1.45;1.30;;;;;;;39.22;13.12;99761.59;5092218;28;43465;-76
2022/07/18 09:50:55;;;;;;;1.08;0.93;;;;;;;39.79;13.21;99761.91;5093575;28;42789;-77
2022/07/18 09:53:25;;;;;;;0.90;0.90;;;;;;;40.83;13.12;99764.00;5093175;28;42187;-76
2022/07/18 09:55:55;;;;;;;0.80;0.80;;;;;;;41.85;12.22;99781.75;5093558;28;40550;-78
2022/07/18 09:58:25;;;;;;;1.17;1.08;;;;;;;42.07;11.42;99787.91;5088922;28;41653;-75
2022/07/18 10:00:54;;;;;;;2.45;1.05;;;;;;;42.69;10.89;99791.41;5091361;28;42699;-77
2022/07/18 10:03:22;;;;;;;0.75;0.75;;;;;;;42.88;10.88;99782.19;5071295;28;41232;-76
2022/07/18 10:05:52;;;;;;;1.17;0.93;;;;;;;42.50;11.54;99780.06;5075112;28;39089;-77
2022/07/18 10:08:23;;;;;;;1.10;1.10;;;;;;;41.85;12.14;99773.41;5086626;28;42331;-73
2022/07/18 10:10:53;;;;;;;1.20;1.02;;;;;;;41.14;12.65;99770.53;5090448;28;43530;-77
2022/07/18 10:13:23;;;;;;;1.10;1.00;;;;;;;40.56;12.95;99764.94;5075340;28;40981;-74
2022/07/18 10:15:51;;;;;;;2.47;1.10;;;;;;;40.03;13.37;99738.25;5089634;28;40847;-74
2022/07/18 10:18:21;;;;;;;1.00;0.95;;;;;;;39.93;13.24;99771.47;5071605;28;42088;-74
2022/07/18 10:20:54;;;;;;;2.55;1.08;;;;;;;40.21;13.09;99762.78;5072697;28;42677;-74
2022/07/18 10:23:24;;;;;;;1.42;1.17;;;;;;;40.89;12.62;99758.19;5088470;28;43042;-75
2022/07/18 10:26:14;;;;;;;1.58;0.90;;;;;;;41.85;12.39;99756.72;5091868;28;39832;-74
2022/07/18 10:29:17;;;;;;;1.15;1.05;;;;;;;42.51;12.07;99773.38;5088875;28;41744;-74
2022/07/18 10:32:04;;;;;;;2.42;1.20;;;;;;;42.58;11.96;99768.31;5091215;28;43800;-74
2022/07/18 10:34:34;;;;;;;1.23;0.90;;;;;;;42.17;11.92;99768.38;5089969;28;42385;-73
2022/07/18 10:37:10;;;;;;;1.58;1.10;;;;;;;41.79;12.13;99747.53;5092797;28;39395;-75
2022/07/18 10:39:39;;;;;;;1.40;1.27;;;;;;;41.82;11.99;99757.28;5091953;28;42193;-73
2022/07/18 10:42:18;;;;;;;1.42;0.95;;;;;;;42.36;11.67;99748.31;5074071;28;43103;-73
2022/07/18 10:44:48;;;;;;;1.02;0.98;;;;;;;42.57;11.52;99758.28;5091640;28;43680;-74
2022/07/18 10:47:20;;;;;;;1.17;1.08;;;;;;;42.30;11.67;99742.75;5090247;28;40628;-80
2022/07/18 10:50:09;;;;;;;1.77;0.90;;;;;;;41.81;11.91;99747.25;5089657;28;41485;-75
2022/07/18 10:52:59;;;;;;;1.10;1.00;;;;;;;41.43;13.08;99732.75;5065636;28;41894;-77
2022/07/18 10:55:29;;;;;;;1.17;1.00;;;;;;;41.18;12.48;99738.25;5071228;28;41915;-72
2022/07/18 10:58:20;;;;;;;0.88;0.80;;;;;;;41.00;13.21;99735.97;5079812;28;39984;-73
2022/07/18 11:01:00;;;;;;;1.63;1.00;;;;;;;40.97;12.62;99742.09;5067146;28;41411;-75
2022/07/18 11:03:29;;;;;;;1.20;1.10;;;;;;;40.98;12.81;99721.53;5089448;28;43044;-74
2022/07/18 11:05:58;;;;;;;2.08;1.20;;;;;;;41.09;12.98;99715.72;5092725;28;43136;-76
2022/07/18 11:08:28;;;;;;;1.10;1.00;;;;;;;41.23;12.65;99735.50;5070969;28;38645;-79
2022/07/18 11:11:14;;;;;;;0.98;0.95;;;;;;;41.32;12.43;99742.19;5054331;28;42804;-72
2022/07/18 11:13:48;;;;;;;1.00;0.90;;;;;;;41.39;12.49;99731.66;5083931;28;42889;-75
2022/07/18 11:16:22;;;;;;;0.95;0.80;;;;;;;41.29;12.29;99728.03;5123285;27;42363;-81
2022/07/18 11:19:29;;;;;;;0.90;0.90;;;;;;;41.13;12.73;99729.94;5091097;28;40202;-80
2022/07/18 11:21:58;;;;;;;2.08;1.13;;;;;;;40.87;12.58;99726.22;5074518;28;42442;-79
2022/07/18 11:24:27;;;;;;;1.73;1.15;;;;;;;40.63;12.69;99720.28;5092152;28;42580;-80
2022/07/18 11:26:55;;;;;;;1.20;1.10;;;;;;;40.51;13.13;99709.41;5091791;28;41160;-81
2022/07/18 11:29:23;;;;;;;0.90;0.90;;;;;;;40.45;12.74;99709.63;5071494;28;40634;-76
2022/07/18 11:31:53;;;;;;;1.02;1.02;;;;;;;40.44;13.19;99699.63;5071071;28;40263;-83
2022/07/18 11:34:22;;;;;;;1.10;1.00;;;;;;;40.49;12.83;99705.22;5068319;28;42917;-78
2022/07/18 11:36:50;;;;;;;0.90;0.90;;;;;;;40.71;13.72;99688.38;5053774;28;43288;-76
2022/07/18 11:39:29;;;;;;;1.13;0.88;;;;;;;40.73;12.24;99698.13;5090619;28;40244;-78
2022/07/18 11:41:57;;;;;;;1.75;0.93;;;;;;;40.99;12.83;99689.84;5090941;28;41722;-79
2022/07/18 11:44:27;;;;;;;1.27;0.93;;;;;;;41.23;12.02;99696.59;5093040;28;43799;-79
2022/07/18 11:47:07;;;;;;;0.80;0.80;;;;;;;41.50;12.71;99686.03;5092221;28;43386;-81